KTSP/TSP METAR and TAF weather

Enter ICAO airport designator
Station Type Date Time Source
KTSP METAR 2021/05/11 15:55 UTC NOAA

KTSP 111555Z AUTO 22003KT 9SM CLR 20/02 A3006 RMK AO2


Station Type Date Time Source
KTSP Decoded METAR 2021/05/11 15:55 UTC NOAA

Station name not available
May 11, 2021 - 11:55 AM EDT / 2021.05.11 1555 UTC
Wind: from the SW (220 degrees) at 3 MPH (3 KT):0
Visibility: 9 mile(s):0
Sky conditions: clear
Temperature: 68 F (20 C)
Dew Point: 35 F (2 C)
Relative Humidity: 30%
Pressure (altimeter): 30.06 in. Hg (1017 hPa)
ob: KTSP 111555Z AUTO 22003KT 9SM CLR 20/02 A3006 RMK AO2
cycle: 16

Station Type Date Time Source
KTSP TAF UTC NOAA

Error!

Example: see airport list